Marianne — VRFM5 — position and weather

sailwx.info

Track history (hours):
 
Tides and Currents Weather Stations Pressure Air Temp Water Temp Dewpoint Dewpoint Depression Visibility Wind Speed Wind Dir Waves Ship Positions

Marianne

Last reported at 2014-Aug-21 13:23 UTC. Time now 2014-Aug-21 14:05 UTC.
Position N 51°16' E 004°20'.

Length 97 m; draft 5.5 m.

Type: Ship (hazmat cat B). MMSI: 477560836.

Date/timePositionNaut miles runAvg speedWind from/ knotsBaromVisibWave heightAir tempDewpointWater temp
2014-Aug-21 13:23N 51°16' E 004°20'0 0.0
2014-Aug-21 12:23N 51°16' E 004°20'0 0.0
2014-Aug-21 11:32N 51°16' E 004°20'0 0.0
2014-Aug-21 10:23N 51°16' E 004°20'0 0.0
2014-Aug-21 09:11N 51°16' E 004°20'0 0.0
2014-Aug-21 06:17N 51°16' E 004°20'0 0.0
2014-Aug-21 03:32N 51°16' E 004°20'0 0.0
2014-Aug-21 02:17N 51°16' E 004°20'0 0.0
2014-Aug-21 01:18N 51°16' E 004°20'1 1.4
2014-Aug-21 00:34N 51°17' E 004°20'5 4.7
2014-Aug-20 23:34N 51°21' E 004°17'0 0.0
2014-Aug-20 22:34N 51°21' E 004°17'0 0.2
2014-Aug-20 21:34N 51°21' E 004°17'4 4.4
2014-Aug-20 20:33N 51°24' E 004°11'6 5.9
2014-Aug-20 19:33N 51°24' E 004°02'8 8.2
2014-Aug-20 18:34N 51°21' E 003°50'1111.3
2014-Aug-20 17:33N 51°26' E 003°34'1211.5
2014-Aug-20 16:30N 51°36' E 003°22'1111.1
2014-Aug-20 15:31N 51°47' E 003°19'2 0.3
2014-Aug-20 07:16N 51°48' E 003°21'0 0.1
2014-Aug-20 06:31N 51°48' E 003°21'0 0.0
2014-Aug-20 05:13N 51°48' E 003°21'0 0.0
2014-Aug-20 04:13N 51°48' E 003°21'0 0.0
2014-Aug-20 02:26N 51°48' E 003°21'0 0.0
2014-Aug-20 01:28N 51°48' E 003°21'0 0.1
2014-Aug-20 00:04N 51°48' E 003°21'0 0.0
2014-Aug-19 23:16N 51°48' E 003°21'0 0.0
2014-Aug-19 20:23N 51°48' E 003°21'0 0.0
2014-Aug-19 19:32N 51°48' E 003°21'0 0.0
2014-Aug-19 11:19N 51°48' E 003°21'0 0.1
2014-Aug-19 10:28N 51°48' E 003°21'5911.5
2014-Aug-19 05:18N 52°46' E 003°43'1013.7
2014-Aug-19 04:33N 52°55' E 003°54'1514.1
2014-Aug-19 03:28N 53°05' E 004°13'3013.3
2014-Aug-19 01:10N 53°31' E 004°37'2512.8
2014-Aug-18 23:13N 53°56' E 004°46'912.8
2014-Aug-18 22:33N 54°04' E 004°49'1313.0
2014-Aug-18 21:31N 54°17' E 004°54'21713.5
2014-Aug-18 05:27N 57°54' E 005°08'5313.6
2014-Aug-18 01:33N 58°46' E 005°12'1312.7
2014-Aug-18 00:33N 58°59' E 005°18'18 1.7
2014-Aug-17 13:27N 59°16' E 005°30'2 2.5
2014-Aug-17 12:33N 59°14' E 005°30'0 0.0
2014-Aug-17 11:28N 59°14' E 005°30'0 0.0
2014-Aug-17 10:31N 59°14' E 005°30'0 0.0
2014-Aug-17 09:31N 59°14' E 005°31'0 0.0
2014-Aug-17 07:09N 59°14' E 005°31'0 0.0
2014-Aug-17 06:24N 59°14' E 005°31'0 0.0
2014-Aug-17 04:32N 59°14' E 005°31'0 0.0
2014-Aug-17 03:27N 59°14' E 005°31'0 0.0
2014-Aug-17 02:29N 59°14' E 005°31'7 7.4
2014-Aug-17 01:33N 59°07' E 005°28'5 5.5
2014-Aug-17 00:33N 59°04' E 005°19'  
2014-Aug-14 10:21N 58°21' E 002°35'22511.4
2014-Aug-13 14:31N 55°03' W 000°41'1414.3
2014-Aug-13 13:33N 54°52' W 000°55'1414.2
2014-Aug-13 12:33N 54°40' W 001°07'3 3.0
2014-Aug-13 11:33N 54°37' W 001°10'0 0.0
2014-Aug-13 09:24N 54°37' W 001°10'0 0.0
2014-Aug-13 08:27N 54°37' W 001°10'0 0.0
2014-Aug-13 07:24N 54°37' W 001°10'0 0.0
2014-Aug-12 14:30N 54°37' W 001°10'0 0.0
2014-Aug-12 13:30N 54°37' W 001°10'0 0.0
2014-Aug-12 12:30N 54°37' W 001°10'0 0.0
2014-Aug-12 11:18N 54°37' W 001°10'0 0.0
2014-Aug-12 10:21N 54°37' W 001°10'0 0.0
2014-Aug-12 09:30N 54°37' W 001°10'0 0.0
2014-Aug-12 08:18N 54°37' W 001°10'0 0.0
2014-Aug-12 07:24N 54°37' W 001°10'0 0.0
2014-Aug-12 05:24N 54°37' W 001°10'0 0.0
2014-Aug-12 03:12N 54°37' W 001°10'0 0.0
2014-Aug-12 01:30N 54°37' W 001°10'0 0.0
2014-Aug-12 00:30N 54°37' W 001°10'0 0.0
2014-Aug-11 22:18N 54°37' W 001°10'0 0.0
2014-Aug-11 21:18N 54°37' W 001°10'0 0.0
2014-Aug-11 20:33N 54°37' W 001°10'0 0.0
2014-Aug-11 19:06N 54°37' W 001°10'0 0.0
2014-Aug-11 18:33N 54°37' W 001°10'0 0.0
2014-Aug-11 15:09N 54°37' W 001°10'  
Track history (hours):
 
Tides and Currents Weather Stations Pressure Air Temp Water Temp Dewpoint Dewpoint Depression Visibility Wind Speed Wind Dir Waves Ship Positions

Marianne

Last reported at 2014-Aug-21 13:23 UTC. Time now 2014-Aug-21 14:05 UTC.
Position N 51°16' E 004°20'.

Length 97 m; draft 5.5 m.

Type: Ship (hazmat cat B). MMSI: 477560836.

Date/timePositionNaut miles runAvg speedWind from/ knotsBaromVisibWave heightAir tempDewpointWater temp
2014-Aug-21 13:23N 51°16' E 004°20'0 0.0
2014-Aug-21 12:23N 51°16' E 004°20'0 0.0
2014-Aug-21 11:32N 51°16' E 004°20'0 0.0
2014-Aug-21 10:23N 51°16' E 004°20'0 0.0
2014-Aug-21 09:11N 51°16' E 004°20'0 0.0
2014-Aug-21 06:17N 51°16' E 004°20'0 0.0
2014-Aug-21 03:32N 51°16' E 004°20'0 0.0
2014-Aug-21 02:17N 51°16' E 004°20'0 0.0
2014-Aug-21 01:18N 51°16' E 004°20'1 1.4
2014-Aug-21 00:34N 51°17' E 004°20'5 4.7
2014-Aug-20 23:34N 51°21' E 004°17'0 0.0
2014-Aug-20 22:34N 51°21' E 004°17'0 0.2
2014-Aug-20 21:34N 51°21' E 004°17'4 4.4
2014-Aug-20 20:33N 51°24' E 004°11'6 5.9
2014-Aug-20 19:33N 51°24' E 004°02'8 8.2
2014-Aug-20 18:34N 51°21' E 003°50'1111.3
2014-Aug-20 17:33N 51°26' E 003°34'1211.5
2014-Aug-20 16:30N 51°36' E 003°22'1111.1
2014-Aug-20 15:31N 51°47' E 003°19'2 0.3
2014-Aug-20 07:16N 51°48' E 003°21'0 0.1
2014-Aug-20 06:31N 51°48' E 003°21'0 0.0
2014-Aug-20 05:13N 51°48' E 003°21'0 0.0
2014-Aug-20 04:13N 51°48' E 003°21'0 0.0
2014-Aug-20 02:26N 51°48' E 003°21'0 0.0
2014-Aug-20 01:28N 51°48' E 003°21'0 0.1
2014-Aug-20 00:04N 51°48' E 003°21'0 0.0
2014-Aug-19 23:16N 51°48' E 003°21'0 0.0
2014-Aug-19 20:23N 51°48' E 003°21'0 0.0
2014-Aug-19 19:32N 51°48' E 003°21'0 0.0
2014-Aug-19 11:19N 51°48' E 003°21'0 0.1
2014-Aug-19 10:28N 51°48' E 003°21'5911.5
2014-Aug-19 05:18N 52°46' E 003°43'1013.7
2014-Aug-19 04:33N 52°55' E 003°54'1514.1
2014-Aug-19 03:28N 53°05' E 004°13'3013.3
2014-Aug-19 01:10N 53°31' E 004°37'2512.8
2014-Aug-18 23:13N 53°56' E 004°46'912.8
2014-Aug-18 22:33N 54°04' E 004°49'1313.0
2014-Aug-18 21:31N 54°17' E 004°54'21713.5
2014-Aug-18 05:27N 57°54' E 005°08'5313.6
2014-Aug-18 01:33N 58°46' E 005°12'1312.7
2014-Aug-18 00:33N 58°59' E 005°18'18 1.7
2014-Aug-17 13:27N 59°16' E 005°30'2 2.5
2014-Aug-17 12:33N 59°14' E 005°30'0 0.0
2014-Aug-17 11:28N 59°14' E 005°30'0 0.0
2014-Aug-17 10:31N 59°14' E 005°30'0 0.0
2014-Aug-17 09:31N 59°14' E 005°31'0 0.0
2014-Aug-17 07:09N 59°14' E 005°31'0 0.0
2014-Aug-17 06:24N 59°14' E 005°31'0 0.0
2014-Aug-17 04:32N 59°14' E 005°31'0 0.0
2014-Aug-17 03:27N 59°14' E 005°31'0 0.0
2014-Aug-17 02:29N 59°14' E 005°31'7 7.4
2014-Aug-17 01:33N 59°07' E 005°28'5 5.5
2014-Aug-17 00:33N 59°04' E 005°19'  
2014-Aug-14 10:21N 58°21' E 002°35'22511.4
2014-Aug-13 14:31N 55°03' W 000°41'1414.3
2014-Aug-13 13:33N 54°52' W 000°55'1414.2
2014-Aug-13 12:33N 54°40' W 001°07'3 3.0
2014-Aug-13 11:33N 54°37' W 001°10'0 0.0
2014-Aug-13 09:24N 54°37' W 001°10'0 0.0
2014-Aug-13 08:27N 54°37' W 001°10'0 0.0
2014-Aug-13 07:24N 54°37' W 001°10'0 0.0
2014-Aug-12 14:30N 54°37' W 001°10'0 0.0
2014-Aug-12 13:30N 54°37' W 001°10'0 0.0
2014-Aug-12 12:30N 54°37' W 001°10'0 0.0
2014-Aug-12 11:18N 54°37' W 001°10'0 0.0
2014-Aug-12 10:21N 54°37' W 001°10'0 0.0
2014-Aug-12 09:30N 54°37' W 001°10'0 0.0
2014-Aug-12 08:18N 54°37' W 001°10'0 0.0
2014-Aug-12 07:24N 54°37' W 001°10'0 0.0
2014-Aug-12 05:24N 54°37' W 001°10'0 0.0
2014-Aug-12 03:12N 54°37' W 001°10'0 0.0
2014-Aug-12 01:30N 54°37' W 001°10'0 0.0
2014-Aug-12 00:30N 54°37' W 001°10'0 0.0
2014-Aug-11 22:18N 54°37' W 001°10'0 0.0
2014-Aug-11 21:18N 54°37' W 001°10'0 0.0
2014-Aug-11 20:33N 54°37' W 001°10'0 0.0
2014-Aug-11 19:06N 54°37' W 001°10'0 0.0
2014-Aug-11 18:33N 54°37' W 001°10'0 0.0
2014-Aug-11 15:09N 54°37' W 001°10'  

Dump ship's entire track history